sensor_id;sensor_type;location;lat;lon;timestamp;temperature;humidity
20712;DHT22;10517;50.742;4.224;2023-03-14T00:01:21;11.80;99.90
20712;DHT22;10517;50.742;4.224;2023-03-14T00:03:47;11.80;99.90
20712;DHT22;10517;50.742;4.224;2023-03-14T00:06:13;11.70;99.90
20712;DHT22;10517;50.742;4.224;2023-03-14T00:08:40;11.60;99.90
20712;DHT22;10517;50.742;4.224;2023-03-14T00:11:13;11.60;99.90
20712;DHT22;10517;50.742;4.224;2023-03-14T00:13:39;11.40;99.90
20712;DHT22;10517;50.742;4.224;2023-03-14T00:16:10;11.40;99.90
20712;DHT22;10517;50.742;4.224;2023-03-14T00:18:36;11.30;99.90
20712;DHT22;10517;50.742;4.224;2023-03-14T00:21:04;11.30;99.90
20712;DHT22;10517;50.742;4.224;2023-03-14T00:23:31;11.30;99.90
20712;DHT22;10517;50.742;4.224;2023-03-14T00:26:01;11.20;99.90
20712;DHT22;10517;50.742;4.224;2023-03-14T00:28:27;11.20;99.90
20712;DHT22;10517;50.742;4.224;2023-03-14T00:30:53;11.10;99.90
20712;DHT22;10517;50.742;4.224;2023-03-14T00:33:19;11.00;99.90
20712;DHT22;10517;50.742;4.224;2023-03-14T00:35:56;11.10;99.90
20712;DHT22;10517;50.742;4.224;2023-03-14T00:38:22;11.20;99.90
20712;DHT22;10517;50.742;4.224;2023-03-14T00:40:48;11.20;99.90
20712;DHT22;10517;50.742;4.224;2023-03-14T00:43:13;11.20;99.90
20712;DHT22;10517;50.742;4.224;2023-03-14T00:45:39;11.20;99.90
20712;DHT22;10517;50.742;4.224;2023-03-14T00:48:04;11.20;99.90
20712;DHT22;10517;50.742;4.224;2023-03-14T00:50:30;11.10;99.90
20712;DHT22;10517;50.742;4.224;2023-03-14T00:52:55;11.10;99.90
20712;DHT22;10517;50.742;4.224;2023-03-14T00:55:21;11.10;99.90
20712;DHT22;10517;50.742;4.224;2023-03-14T00:57:47;11.20;99.90
20712;DHT22;10517;50.742;4.224;2023-03-14T01:00:13;11.20;99.90
20712;DHT22;10517;50.742;4.224;2023-03-14T01:02:39;11.30;99.90
20712;DHT22;10517;50.742;4.224;2023-03-14T01:05:04;11.40;99.90
20712;DHT22;10517;50.742;4.224;2023-03-14T01:07:30;11.40;99.90
20712;DHT22;10517;50.742;4.224;2023-03-14T01:09:56;11.40;99.90
20712;DHT22;10517;50.742;4.224;2023-03-14T01:12:21;11.50;99.90
20712;DHT22;10517;50.742;4.224;2023-03-14T01:14:47;11.40;99.90
20712;DHT22;10517;50.742;4.224;2023-03-14T01:17:12;11.30;99.90
20712;DHT22;10517;50.742;4.224;2023-03-14T01:19:38;11.20;99.90
20712;DHT22;10517;50.742;4.224;2023-03-14T01:22:03;11.20;99.90
20712;DHT22;10517;50.742;4.224;2023-03-14T01:24:29;11.20;99.90
20712;DHT22;10517;50.742;4.224;2023-03-14T01:26:54;11.10;99.90
20712;DHT22;10517;50.742;4.224;2023-03-14T01:29:20;11.00;99.90
20712;DHT22;10517;50.742;4.224;2023-03-14T01:31:45;10.90;99.90
20712;DHT22;10517;50.742;4.224;2023-03-14T01:34:11;10.90;99.90
20712;DHT22;10517;50.742;4.224;2023-03-14T01:36:37;11.00;99.90
20712;DHT22;10517;50.742;4.224;2023-03-14T01:39:03;10.90;99.90
20712;DHT22;10517;50.742;4.224;2023-03-14T01:41:31;10.90;99.90
20712;DHT22;10517;50.742;4.224;2023-03-14T01:43:57;10.80;99.90
20712;DHT22;10517;50.742;4.224;2023-03-14T01:46:45;10.70;99.90
20712;DHT22;10517;50.742;4.224;2023-03-14T01:49:34;10.60;99.90
20712;DHT22;10517;50.742;4.224;2023-03-14T01:54:43;10.50;99.90
20712;DHT22;10517;50.742;4.224;2023-03-14T01:57:25;10.40;99.90
20712;DHT22;10517;50.742;4.224;2023-03-14T02:02:24;10.30;99.90
20712;DHT22;10517;50.742;4.224;2023-03-14T02:04:51;10.20;99.90
20712;DHT22;10517;50.742;4.224;2023-03-14T02:07:24;10.20;99.90
20712;DHT22;10517;50.742;4.224;2023-03-14T02:09:52;10.30;99.90
20712;DHT22;10517;50.742;4.224;2023-03-14T02:12:20;10.30;99.90
20712;DHT22;10517;50.742;4.224;2023-03-14T02:14:46;10.30;99.90
20712;DHT22;10517;50.742;4.224;2023-03-14T02:17:16;10.30;99.90
20712;DHT22;10517;50.742;4.224;2023-03-14T02:22:24;10.40;99.90
20712;DHT22;10517;50.742;4.224;2023-03-14T02:24:59;10.30;99.90
20712;DHT22;10517;50.742;4.224;2023-03-14T02:27:26;10.30;99.90
20712;DHT22;10517;50.742;4.224;2023-03-14T02:30:02;10.30;99.90
20712;DHT22;10517;50.742;4.224;2023-03-14T02:32:31;10.40;99.90
20712;DHT22;10517;50.742;4.224;2023-03-14T02:35:00;10.40;99.90
20712;DHT22;10517;50.742;4.224;2023-03-14T02:37:37;10.50;99.90
20712;DHT22;10517;50.742;4.224;2023-03-14T02:40:04;10.50;99.90
20712;DHT22;10517;50.742;4.224;2023-03-14T02:42:30;10.60;99.90
20712;DHT22;10517;50.742;4.224;2023-03-14T02:47:33;10.70;99.90
20712;DHT22;10517;50.742;4.224;2023-03-14T02:50:14;10.70;99.90
20712;DHT22;10517;50.742;4.224;2023-03-14T02:52:41;10.60;99.90
20712;DHT22;10517;50.742;4.224;2023-03-14T02:55:07;10.50;99.90
20712;DHT22;10517;50.742;4.224;2023-03-14T02:57:32;10.30;99.90
20712;DHT22;10517;50.742;4.224;2023-03-14T02:59:59;10.30;99.90
20712;DHT22;10517;50.742;4.224;2023-03-14T03:02:25;10.30;99.90
20712;DHT22;10517;50.742;4.224;2023-03-14T03:04:51;10.30;99.90
20712;DHT22;10517;50.742;4.224;2023-03-14T03:07:16;10.30;99.90
20712;DHT22;10517;50.742;4.224;2023-03-14T03:09:42;10.30;99.90
20712;DHT22;10517;50.742;4.224;2023-03-14T03:12:08;10.30;99.90
20712;DHT22;10517;50.742;4.224;2023-03-14T03:14:33;10.20;99.90
20712;DHT22;10517;50.742;4.224;2023-03-14T03:16:59;10.20;99.90
20712;DHT22;10517;50.742;4.224;2023-03-14T03:19:24;10.30;99.90
20712;DHT22;10517;50.742;4.224;2023-03-14T03:21:50;10.30;99.90
20712;DHT22;10517;50.742;4.224;2023-03-14T03:24:15;10.30;99.90
20712;DHT22;10517;50.742;4.224;2023-03-14T03:26:41;10.30;99.90
20712;DHT22;10517;50.742;4.224;2023-03-14T03:29:07;10.40;99.90
20712;DHT22;10517;50.742;4.224;2023-03-14T03:31:32;10.50;99.90
20712;DHT22;10517;50.742;4.224;2023-03-14T03:33:58;10.40;99.90
20712;DHT22;10517;50.742;4.224;2023-03-14T03:36:25;10.50;99.90
20712;DHT22;10517;50.742;4.224;2023-03-14T03:38:51;10.30;99.90
20712;DHT22;10517;50.742;4.224;2023-03-14T03:41:17;10.40;99.90
20712;DHT22;10517;50.742;4.224;2023-03-14T03:43:42;10.40;99.90
20712;DHT22;10517;50.742;4.224;2023-03-14T03:46:08;10.30;99.90
20712;DHT22;10517;50.742;4.224;2023-03-14T03:48:35;10.30;99.90
20712;DHT22;10517;50.742;4.224;2023-03-14T03:51:01;10.20;99.90
20712;DHT22;10517;50.742;4.224;2023-03-14T03:53:26;10.30;99.90
20712;DHT22;10517;50.742;4.224;2023-03-14T03:55:52;10.30;99.90
20712;DHT22;10517;50.742;4.224;2023-03-14T03:58:18;10.40;99.90
20712;DHT22;10517;50.742;4.224;2023-03-14T04:00:43;10.50;99.90
20712;DHT22;10517;50.742;4.224;2023-03-14T04:03:09;10.40;99.90
20712;DHT22;10517;50.742;4.224;2023-03-14T04:05:34;10.50;99.90
20712;DHT22;10517;50.742;4.224;2023-03-14T04:08:01;10.50;99.90
20712;DHT22;10517;50.742;4.224;2023-03-14T04:10:27;10.50;99.90
20712;DHT22;10517;50.742;4.224;2023-03-14T04:12:52;10.50;99.90
20712;DHT22;10517;50.742;4.224;2023-03-14T04:15:18;10.50;99.90
20712;DHT22;10517;50.742;4.224;2023-03-14T04:17:44;10.60;99.90
20712;DHT22;10517;50.742;4.224;2023-03-14T04:20:10;10.50;99.90
20712;DHT22;10517;50.742;4.224;2023-03-14T04:22:39;10.50;99.90
20712;DHT22;10517;50.742;4.224;2023-03-14T04:25:05;10.50;99.90
20712;DHT22;10517;50.742;4.224;2023-03-14T04:27:31;10.50;99.90
20712;DHT22;10517;50.742;4.224;2023-03-14T04:29:57;10.50;99.90
20712;DHT22;10517;50.742;4.224;2023-03-14T04:32:22;10.50;99.90
20712;DHT22;10517;50.742;4.224;2023-03-14T04:34:48;10.70;99.90
20712;DHT22;10517;50.742;4.224;2023-03-14T04:37:14;10.60;99.90
20712;DHT22;10517;50.742;4.224;2023-03-14T04:39:39;10.60;99.90
20712;DHT22;10517;50.742;4.224;2023-03-14T04:42:05;10.60;99.90
20712;DHT22;10517;50.742;4.224;2023-03-14T04:44:31;10.60;99.90
20712;DHT22;10517;50.742;4.224;2023-03-14T04:46:56;10.70;99.90
20712;DHT22;10517;50.742;4.224;2023-03-14T04:49:22;10.70;99.90
20712;DHT22;10517;50.742;4.224;2023-03-14T04:51:48;10.80;99.90
20712;DHT22;10517;50.742;4.224;2023-03-14T04:54:16;10.80;99.90
20712;DHT22;10517;50.742;4.224;2023-03-14T04:56:42;10.80;99.90
20712;DHT22;10517;50.742;4.224;2023-03-14T04:59:08;10.80;99.90
20712;DHT22;10517;50.742;4.224;2023-03-14T05:01:33;10.90;99.90
20712;DHT22;10517;50.742;4.224;2023-03-14T05:03:59;11.00;99.90
20712;DHT22;10517;50.742;4.224;2023-03-14T05:06:25;11.00;99.90
20712;DHT22;10517;50.742;4.224;2023-03-14T05:08:50;11.00;99.90
20712;DHT22;10517;50.742;4.224;2023-03-14T05:11:16;10.90;99.90
20712;DHT22;10517;50.742;4.224;2023-03-14T05:13:41;10.90;99.90
20712;DHT22;10517;50.742;4.224;2023-03-14T05:16:09;11.00;99.90
20712;DHT22;10517;50.742;4.224;2023-03-14T05:18:35;11.00;99.90
20712;DHT22;10517;50.742;4.224;2023-03-14T05:21:01;10.90;99.90
20712;DHT22;10517;50.742;4.224;2023-03-14T05:23:27;10.90;99.90
20712;DHT22;10517;50.742;4.224;2023-03-14T05:25:52;10.90;99.90
20712;DHT22;10517;50.742;4.224;2023-03-14T05:28:18;11.00;99.90
20712;DHT22;10517;50.742;4.224;2023-03-14T05:30:44;11.00;99.90
20712;DHT22;10517;50.742;4.224;2023-03-14T05:33:09;11.00;99.90
20712;DHT22;10517;50.742;4.224;2023-03-14T05:35:35;11.00;99.90
20712;DHT22;10517;50.742;4.224;2023-03-14T05:38:00;11.00;99.90
20712;DHT22;10517;50.742;4.224;2023-03-14T05:40:26;10.90;99.90
20712;DHT22;10517;50.742;4.224;2023-03-14T05:42:51;10.90;99.90
20712;DHT22;10517;50.742;4.224;2023-03-14T05:45:17;10.90;99.90
20712;DHT22;10517;50.742;4.224;2023-03-14T05:47:43;11.00;99.90
20712;DHT22;10517;50.742;4.224;2023-03-14T05:50:09;11.10;99.90
20712;DHT22;10517;50.742;4.224;2023-03-14T05:52:35;11.10;99.90
20712;DHT22;10517;50.742;4.224;2023-03-14T05:55:00;11.00;99.90
20712;DHT22;10517;50.742;4.224;2023-03-14T05:57:26;11.00;99.90
20712;DHT22;10517;50.742;4.224;2023-03-14T05:59:51;10.90;99.90
20712;DHT22;10517;50.742;4.224;2023-03-14T06:02:17;10.80;99.90
20712;DHT22;10517;50.742;4.224;2023-03-14T06:04:43;10.90;99.90
20712;DHT22;10517;50.742;4.224;2023-03-14T06:07:08;10.90;99.90
20712;DHT22;10517;50.742;4.224;2023-03-14T06:09:34;10.90;99.90
20712;DHT22;10517;50.742;4.224;2023-03-14T06:11:59;10.80;99.90
20712;DHT22;10517;50.742;4.224;2023-03-14T06:14:25;10.80;99.90
20712;DHT22;10517;50.742;4.224;2023-03-14T06:16:50;10.90;99.90
20712;DHT22;10517;50.742;4.224;2023-03-14T06:19:16;10.90;99.90
20712;DHT22;10517;50.742;4.224;2023-03-14T06:21:42;11.00;99.90
20712;DHT22;10517;50.742;4.224;2023-03-14T06:24:08;11.00;99.90
20712;DHT22;10517;50.742;4.224;2023-03-14T06:26:33;11.10;99.90
20712;DHT22;10517;50.742;4.224;2023-03-14T06:28:59;11.00;99.90
20712;DHT22;10517;50.742;4.224;2023-03-14T06:31:29;11.00;99.90
20712;DHT22;10517;50.742;4.224;2023-03-14T06:33:55;11.00;99.90
20712;DHT22;10517;50.742;4.224;2023-03-14T06:36:21;10.90;99.90
20712;DHT22;10517;50.742;4.224;2023-03-14T06:38:47;10.90;99.90
20712;DHT22;10517;50.742;4.224;2023-03-14T06:41:12;10.90;99.90
20712;DHT22;10517;50.742;4.224;2023-03-14T06:43:38;10.70;99.90
20712;DHT22;10517;50.742;4.224;2023-03-14T06:46:04;9.80;99.90
20712;DHT22;10517;50.742;4.224;2023-03-14T06:48:29;9.30;99.90
20712;DHT22;10517;50.742;4.224;2023-03-14T06:50:55;8.90;99.90
20712;DHT22;10517;50.742;4.224;2023-03-14T06:53:21;8.50;99.90
20712;DHT22;10517;50.742;4.224;2023-03-14T06:55:46;8.30;99.90
20712;DHT22;10517;50.742;4.224;2023-03-14T06:58:12;8.00;99.90
20712;DHT22;10517;50.742;4.224;2023-03-14T07:00:38;7.90;99.90
20712;DHT22;10517;50.742;4.224;2023-03-14T07:03:03;7.80;99.90
20712;DHT22;10517;50.742;4.224;2023-03-14T07:05:29;7.70;99.90
20712;DHT22;10517;50.742;4.224;2023-03-14T07:07:55;7.60;99.90
20712;DHT22;10517;50.742;4.224;2023-03-14T07:10:21;7.50;99.90
20712;DHT22;10517;50.742;4.224;2023-03-14T07:12:46;7.30;99.90
20712;DHT22;10517;50.742;4.224;2023-03-14T07:15:12;7.20;99.90
20712;DHT22;10517;50.742;4.224;2023-03-14T07:17:37;7.10;99.90
20712;DHT22;10517;50.742;4.224;2023-03-14T07:20:03;7.20;99.90
20712;DHT22;10517;50.742;4.224;2023-03-14T07:22:30;7.10;99.90
20712;DHT22;10517;50.742;4.224;2023-03-14T07:24:56;7.10;99.90
20712;DHT22;10517;50.742;4.224;2023-03-14T07:27:21;7.20;99.90
20712;DHT22;10517;50.742;4.224;2023-03-14T07:29:47;7.10;99.90
20712;DHT22;10517;50.742;4.224;2023-03-14T07:32:12;7.10;99.90
20712;DHT22;10517;50.742;4.224;2023-03-14T07:34:41;7.10;99.90
20712;DHT22;10517;50.742;4.224;2023-03-14T07:37:06;7.10;99.90
20712;DHT22;10517;50.742;4.224;2023-03-14T07:39:32;7.20;99.90
20712;DHT22;10517;50.742;4.224;2023-03-14T07:41:57;7.20;99.90
20712;DHT22;10517;50.742;4.224;2023-03-14T07:44:23;7.20;99.90
20712;DHT22;10517;50.742;4.224;2023-03-14T07:46:49;7.30;99.90
20712;DHT22;10517;50.742;4.224;2023-03-14T07:49:14;7.30;99.90
20712;DHT22;10517;50.742;4.224;2023-03-14T07:51:40;7.30;99.90
20712;DHT22;10517;50.742;4.224;2023-03-14T07:54:05;7.30;99.90
20712;DHT22;10517;50.742;4.224;2023-03-14T07:56:31;7.30;99.90
20712;DHT22;10517;50.742;4.224;2023-03-14T07:58:57;7.20;99.90
20712;DHT22;10517;50.742;4.224;2023-03-14T08:01:22;7.30;99.90
20712;DHT22;10517;50.742;4.224;2023-03-14T08:03:48;7.20;99.90
20712;DHT22;10517;50.742;4.224;2023-03-14T08:06:14;7.10;99.90
20712;DHT22;10517;50.742;4.224;2023-03-14T08:08:39;7.10;99.90
20712;DHT22;10517;50.742;4.224;2023-03-14T08:11:05;7.20;99.90
20712;DHT22;10517;50.742;4.224;2023-03-14T08:13:34;7.20;99.90
20712;DHT22;10517;50.742;4.224;2023-03-14T08:15:59;7.10;99.90
20712;DHT22;10517;50.742;4.224;2023-03-14T08:18:25;7.10;99.90
20712;DHT22;10517;50.742;4.224;2023-03-14T08:20:50;7.10;99.90
20712;DHT22;10517;50.742;4.224;2023-03-14T08:23:16;7.20;99.90
20712;DHT22;10517;50.742;4.224;2023-03-14T08:25:42;7.20;99.90
20712;DHT22;10517;50.742;4.224;2023-03-14T08:28:08;7.20;99.90
20712;DHT22;10517;50.742;4.224;2023-03-14T08:30:34;7.20;99.90
20712;DHT22;10517;50.742;4.224;2023-03-14T08:32:59;7.20;99.90
20712;DHT22;10517;50.742;4.224;2023-03-14T08:35:26;7.00;99.90
20712;DHT22;10517;50.742;4.224;2023-03-14T08:37:52;6.90;99.90
20712;DHT22;10517;50.742;4.224;2023-03-14T08:40:17;6.90;99.90
20712;DHT22;10517;50.742;4.224;2023-03-14T08:42:43;6.80;99.90
20712;DHT22;10517;50.742;4.224;2023-03-14T08:45:12;6.80;99.90
20712;DHT22;10517;50.742;4.224;2023-03-14T08:47:39;6.80;99.90
20712;DHT22;10517;50.742;4.224;2023-03-14T08:50:06;6.80;99.90
20712;DHT22;10517;50.742;4.224;2023-03-14T08:52:32;6.70;99.90
20712;DHT22;10517;50.742;4.224;2023-03-14T08:54:58;6.80;99.90
20712;DHT22;10517;50.742;4.224;2023-03-14T08:57:24;6.80;99.90
20712;DHT22;10517;50.742;4.224;2023-03-14T08:59:56;6.70;99.90
20712;DHT22;10517;50.742;4.224;2023-03-14T09:02:23;6.60;99.90
20712;DHT22;10517;50.742;4.224;2023-03-14T09:04:52;6.60;99.90
20712;DHT22;10517;50.742;4.224;2023-03-14T09:07:18;6.50;99.90
20712;DHT22;10517;50.742;4.224;2023-03-14T09:09:45;6.50;99.90
20712;DHT22;10517;50.742;4.224;2023-03-14T09:12:11;6.40;99.90
20712;DHT22;10517;50.742;4.224;2023-03-14T09:14:37;6.40;99.90
20712;DHT22;10517;50.742;4.224;2023-03-14T09:17:03;6.40;99.90
20712;DHT22;10517;50.742;4.224;2023-03-14T09:19:29;6.60;99.90
20712;DHT22;10517;50.742;4.224;2023-03-14T09:21:55;6.60;99.90
20712;DHT22;10517;50.742;4.224;2023-03-14T09:24:20;6.60;99.90
20712;DHT22;10517;50.742;4.224;2023-03-14T09:26:46;6.80;99.90
20712;DHT22;10517;50.742;4.224;2023-03-14T09:29:12;7.00;99.90
20712;DHT22;10517;50.742;4.224;2023-03-14T09:31:38;7.00;99.90
20712;DHT22;10517;50.742;4.224;2023-03-14T09:34:03;7.00;99.90
20712;DHT22;10517;50.742;4.224;2023-03-14T09:36:29;6.90;99.90
20712;DHT22;10517;50.742;4.224;2023-03-14T09:38:55;6.90;99.90
20712;DHT22;10517;50.742;4.224;2023-03-14T09:41:26;7.00;99.90
20712;DHT22;10517;50.742;4.224;2023-03-14T09:44:04;7.20;99.90
20712;DHT22;10517;50.742;4.224;2023-03-14T09:46:33;7.30;99.90
20712;DHT22;10517;50.742;4.224;2023-03-14T09:49:00;7.30;99.90
20712;DHT22;10517;50.742;4.224;2023-03-14T09:51:27;7.20;99.90
20712;DHT22;10517;50.742;4.224;2023-03-14T09:53:53;7.30;99.90
20712;DHT22;10517;50.742;4.224;2023-03-14T09:56:22;7.30;99.90
20712;DHT22;10517;50.742;4.224;2023-03-14T09:58:56;7.30;99.90
20712;DHT22;10517;50.742;4.224;2023-03-14T10:01:26;7.40;99.90
20712;DHT22;10517;50.742;4.224;2023-03-14T10:03:55;7.50;99.90
20712;DHT22;10517;50.742;4.224;2023-03-14T10:06:27;7.50;99.90
20712;DHT22;10517;50.742;4.224;2023-03-14T10:08:54;7.50;99.90
20712;DHT22;10517;50.742;4.224;2023-03-14T10:11:20;7.50;99.90
20712;DHT22;10517;50.742;4.224;2023-03-14T10:14:06;7.50;99.90
20712;DHT22;10517;50.742;4.224;2023-03-14T10:16:35;7.50;99.90
20712;DHT22;10517;50.742;4.224;2023-03-14T10:19:03;7.50;99.90
20712;DHT22;10517;50.742;4.224;2023-03-14T10:21:30;7.50;99.90
20712;DHT22;10517;50.742;4.224;2023-03-14T10:24:31;7.60;99.90
20712;DHT22;10517;50.742;4.224;2023-03-14T10:27:01;7.60;99.90
20712;DHT22;10517;50.742;4.224;2023-03-14T10:29:31;7.80;99.90
20712;DHT22;10517;50.742;4.224;2023-03-14T10:32:04;7.60;99.90
20712;DHT22;10517;50.742;4.224;2023-03-14T10:34:36;7.40;99.90
20712;DHT22;10517;50.742;4.224;2023-03-14T10:37:21;7.40;99.90
20712;DHT22;10517;50.742;4.224;2023-03-14T10:39:49;7.60;99.90
20712;DHT22;10517;50.742;4.224;2023-03-14T10:42:26;7.50;99.90
20712;DHT22;10517;50.742;4.224;2023-03-14T10:45:00;7.60;99.90
20712;DHT22;10517;50.742;4.224;2023-03-14T10:47:27;7.60;99.90
20712;DHT22;10517;50.742;4.224;2023-03-14T10:49:54;7.80;99.90
20712;DHT22;10517;50.742;4.224;2023-03-14T10:52:24;7.80;99.90
20712;DHT22;10517;50.742;4.224;2023-03-14T10:57:20;7.80;99.90
20712;DHT22;10517;50.742;4.224;2023-03-14T10:59:46;7.70;99.90
20712;DHT22;10517;50.742;4.224;2023-03-14T11:05:21;7.70;99.90
20712;DHT22;10517;50.742;4.224;2023-03-14T11:07:53;7.50;99.90
20712;DHT22;10517;50.742;4.224;2023-03-14T11:10:34;7.50;99.90
20712;DHT22;10517;50.742;4.224;2023-03-14T11:24:49;7.00;99.90
20712;DHT22;10517;50.742;4.224;2023-03-14T11:27:23;6.80;99.90
20712;DHT22;10517;50.742;4.224;2023-03-14T11:29:54;6.60;99.90
20712;DHT22;10517;50.742;4.224;2023-03-14T11:40:31;6.40;99.90
20712;DHT22;10517;50.742;4.224;2023-03-14T11:43:35;6.40;99.90
20712;DHT22;10517;50.742;4.224;2023-03-14T11:46:27;6.30;99.90
20712;DHT22;10517;50.742;4.224;2023-03-14T11:49:25;6.10;99.90
20712;DHT22;10517;50.742;4.224;2023-03-14T11:51:56;6.00;99.90
20712;DHT22;10517;50.742;4.224;2023-03-14T11:54:31;5.90;99.90
20712;DHT22;10517;50.742;4.224;2023-03-14T11:57:11;5.90;99.90
20712;DHT22;10517;50.742;4.224;2023-03-14T12:10:49;5.40;99.90
20712;DHT22;10517;50.742;4.224;2023-03-14T12:13:17;5.30;99.90
20712;DHT22;10517;50.742;4.224;2023-03-14T12:15:58;5.20;99.90
20712;DHT22;10517;50.742;4.224;2023-03-14T12:18:33;5.20;99.90
20712;DHT22;10517;50.742;4.224;2023-03-14T12:21:05;5.20;99.90
20712;DHT22;10517;50.742;4.224;2023-03-14T12:28:37;5.20;99.90
20712;DHT22;10517;50.742;4.224;2023-03-14T12:42:12;5.60;99.90
20712;DHT22;10517;50.742;4.224;2023-03-14T12:44:46;5.50;99.90
20712;DHT22;10517;50.742;4.224;2023-03-14T12:49:52;5.50;99.90
20712;DHT22;10517;50.742;4.224;2023-03-14T12:52:30;5.50;99.90
20712;DHT22;10517;50.742;4.224;2023-03-14T12:55:09;5.50;99.90
20712;DHT22;10517;50.742;4.224;2023-03-14T12:57:42;5.50;99.90
20712;DHT22;10517;50.742;4.224;2023-03-14T13:00:19;5.50;99.90
20712;DHT22;10517;50.742;4.224;2023-03-14T13:02:46;5.40;99.90
20712;DHT22;10517;50.742;4.224;2023-03-14T13:05:22;5.40;99.90
20712;DHT22;10517;50.742;4.224;2023-03-14T13:10:25;5.40;99.90
20712;DHT22;10517;50.742;4.224;2023-03-14T13:12:54;5.40;99.90
20712;DHT22;10517;50.742;4.224;2023-03-14T13:15:29;5.50;99.90
20712;DHT22;10517;50.742;4.224;2023-03-14T13:18:01;5.50;99.90
20712;DHT22;10517;50.742;4.224;2023-03-14T13:20:46;5.60;99.90
20712;DHT22;10517;50.742;4.224;2023-03-14T13:23:28;5.70;99.90
20712;DHT22;10517;50.742;4.224;2023-03-14T13:25:54;5.70;99.90
20712;DHT22;10517;50.742;4.224;2023-03-14T13:28:20;5.70;99.90
20712;DHT22;10517;50.742;4.224;2023-03-14T13:30:48;5.60;99.90
20712;DHT22;10517;50.742;4.224;2023-03-14T13:33:20;5.50;99.90
20712;DHT22;10517;50.742;4.224;2023-03-14T13:35:49;5.40;99.90
20712;DHT22;10517;50.742;4.224;2023-03-14T13:38:21;5.30;99.90
20712;DHT22;10517;50.742;4.224;2023-03-14T13:40:49;5.40;99.90
20712;DHT22;10517;50.742;4.224;2023-03-14T13:43:21;5.40;99.90
20712;DHT22;10517;50.742;4.224;2023-03-14T13:45:53;5.40;99.90
20712;DHT22;10517;50.742;4.224;2023-03-14T13:48:19;5.30;99.90
20712;DHT22;10517;50.742;4.224;2023-03-14T13:50:51;5.40;99.90
20712;DHT22;10517;50.742;4.224;2023-03-14T13:53:18;5.40;99.90
20712;DHT22;10517;50.742;4.224;2023-03-14T13:55:43;5.40;99.90
20712;DHT22;10517;50.742;4.224;2023-03-14T13:58:19;5.30;99.90
20712;DHT22;10517;50.742;4.224;2023-03-14T14:01:03;5.40;99.90
20712;DHT22;10517;50.742;4.224;2023-03-14T14:03:32;5.20;99.90
20712;DHT22;10517;50.742;4.224;2023-03-14T14:05:58;4.90;99.90
20712;DHT22;10517;50.742;4.224;2023-03-14T14:08:24;4.60;99.90
20712;DHT22;10517;50.742;4.224;2023-03-14T14:11:02;4.60;99.90
20712;DHT22;10517;50.742;4.224;2023-03-14T14:13:32;4.60;99.90
20712;DHT22;10517;50.742;4.224;2023-03-14T14:15:59;4.80;99.90
20712;DHT22;10517;50.742;4.224;2023-03-14T14:18:27;5.00;99.90
20712;DHT22;10517;50.742;4.224;2023-03-14T14:20:54;5.30;99.90
20712;DHT22;10517;50.742;4.224;2023-03-14T14:23:22;5.50;99.90
20712;DHT22;10517;50.742;4.224;2023-03-14T14:25:55;5.60;99.90
20712;DHT22;10517;50.742;4.224;2023-03-14T14:28:33;5.60;99.90
20712;DHT22;10517;50.742;4.224;2023-03-14T14:36:21;5.40;99.90
20712;DHT22;10517;50.742;4.224;2023-03-14T14:38:57;5.30;99.90
20712;DHT22;10517;50.742;4.224;2023-03-14T14:41:27;5.40;99.90
20712;DHT22;10517;50.742;4.224;2023-03-14T14:43:53;5.40;99.90
20712;DHT22;10517;50.742;4.224;2023-03-14T14:46:19;5.40;99.90
20712;DHT22;10517;50.742;4.224;2023-03-14T14:48:45;5.30;99.90
20712;DHT22;10517;50.742;4.224;2023-03-14T14:51:25;5.30;99.90
20712;DHT22;10517;50.742;4.224;2023-03-14T14:54:09;5.30;99.90
20712;DHT22;10517;50.742;4.224;2023-03-14T14:56:38;5.30;99.90
20712;DHT22;10517;50.742;4.224;2023-03-14T14:59:05;5.20;99.90
20712;DHT22;10517;50.742;4.224;2023-03-14T15:01:34;4.80;99.90
20712;DHT22;10517;50.742;4.224;2023-03-14T15:04:01;4.50;99.90
20712;DHT22;10517;50.742;4.224;2023-03-14T15:06:29;4.40;99.90
20712;DHT22;10517;50.742;4.224;2023-03-14T15:08:57;4.20;99.90
20712;DHT22;10517;50.742;4.224;2023-03-14T15:11:24;4.20;99.90
20712;DHT22;10517;50.742;4.224;2023-03-14T15:13:51;4.20;99.90
20712;DHT22;10517;50.742;4.224;2023-03-14T15:16:22;4.20;99.90
20712;DHT22;10517;50.742;4.224;2023-03-14T15:18:57;4.20;99.90
20712;DHT22;10517;50.742;4.224;2023-03-14T15:21:25;4.40;99.90
20712;DHT22;10517;50.742;4.224;2023-03-14T15:23:51;4.60;99.90
20712;DHT22;10517;50.742;4.224;2023-03-14T15:26:19;4.70;99.90
20712;DHT22;10517;50.742;4.224;2023-03-14T15:28:46;4.80;99.90
20712;DHT22;10517;50.742;4.224;2023-03-14T15:31:13;5.00;99.90
20712;DHT22;10517;50.742;4.224;2023-03-14T15:33:40;5.10;99.90
20712;DHT22;10517;50.742;4.224;2023-03-14T15:36:16;5.30;99.90
20712;DHT22;10517;50.742;4.224;2023-03-14T15:38:44;5.50;99.90
20712;DHT22;10517;50.742;4.224;2023-03-14T15:41:10;5.70;99.90
20712;DHT22;10517;50.742;4.224;2023-03-14T15:43:35;6.00;99.90
20712;DHT22;10517;50.742;4.224;2023-03-14T15:46:01;6.10;99.90
20712;DHT22;10517;50.742;4.224;2023-03-14T15:48:26;6.20;99.90
20712;DHT22;10517;50.742;4.224;2023-03-14T15:50:52;6.10;99.90
20712;DHT22;10517;50.742;4.224;2023-03-14T15:53:17;6.10;99.90
20712;DHT22;10517;50.742;4.224;2023-03-14T15:55:43;6.20;99.90
20712;DHT22;10517;50.742;4.224;2023-03-14T15:58:19;6.20;99.90
20712;DHT22;10517;50.742;4.224;2023-03-14T16:00:45;6.30;99.90
20712;DHT22;10517;50.742;4.224;2023-03-14T16:03:11;6.30;99.90
20712;DHT22;10517;50.742;4.224;2023-03-14T16:05:38;6.30;99.90
20712;DHT22;10517;50.742;4.224;2023-03-14T16:08:04;6.50;99.90
20712;DHT22;10517;50.742;4.224;2023-03-14T16:10:30;6.40;99.90
20712;DHT22;10517;50.742;4.224;2023-03-14T16:12:55;6.40;99.90
20712;DHT22;10517;50.742;4.224;2023-03-14T16:15:21;6.30;99.90
20712;DHT22;10517;50.742;4.224;2023-03-14T16:17:47;6.40;99.90
20712;DHT22;10517;50.742;4.224;2023-03-14T16:20:14;6.40;99.90
20712;DHT22;10517;50.742;4.224;2023-03-14T16:22:39;6.30;99.90
20712;DHT22;10517;50.742;4.224;2023-03-14T16:25:06;6.30;99.90
20712;DHT22;10517;50.742;4.224;2023-03-14T16:27:32;6.30;99.90
20712;DHT22;10517;50.742;4.224;2023-03-14T16:29:58;6.40;99.90
20712;DHT22;10517;50.742;4.224;2023-03-14T16:32:27;6.40;99.90
20712;DHT22;10517;50.742;4.224;2023-03-14T16:34:52;6.40;99.90
20712;DHT22;10517;50.742;4.224;2023-03-14T16:37:18;6.50;99.90
20712;DHT22;10517;50.742;4.224;2023-03-14T16:39:46;6.50;99.90
20712;DHT22;10517;50.742;4.224;2023-03-14T16:42:12;6.50;99.90
20712;DHT22;10517;50.742;4.224;2023-03-14T16:44:38;6.50;99.90
20712;DHT22;10517;50.742;4.224;2023-03-14T16:47:04;6.50;99.90
20712;DHT22;10517;50.742;4.224;2023-03-14T16:49:30;6.50;99.90
20712;DHT22;10517;50.742;4.224;2023-03-14T16:51:55;6.40;99.90
20712;DHT22;10517;50.742;4.224;2023-03-14T16:54:21;6.40;99.90
20712;DHT22;10517;50.742;4.224;2023-03-14T16:56:46;6.40;99.90
20712;DHT22;10517;50.742;4.224;2023-03-14T16:59:14;6.20;99.90